sensor_id;sensor_type;location;lat;lon;timestamp;P1;durP1;ratioP1;P2;durP2;ratioP2
11425;SDS011;5769;47.998;7.788;2023-04-01T00:02:25;0.40;;;0.00;;
11425;SDS011;5769;47.998;7.788;2023-04-01T00:04:52;0.00;;;0.00;;
11425;SDS011;5769;47.998;7.788;2023-04-01T00:07:19;0.03;;;0.00;;
11425;SDS011;5769;47.998;7.788;2023-04-01T00:09:46;0.03;;;0.00;;
11425;SDS011;5769;47.998;7.788;2023-04-01T00:12:13;0.05;;;0.00;;
11425;SDS011;5769;47.998;7.788;2023-04-01T00:14:41;0.05;;;0.03;;
11425;SDS011;5769;47.998;7.788;2023-04-01T00:17:08;0.00;;;0.00;;
11425;SDS011;5769;47.998;7.788;2023-04-01T00:19:35;0.00;;;0.00;;
11425;SDS011;5769;47.998;7.788;2023-04-01T00:22:03;0.00;;;0.00;;
11425;SDS011;5769;47.998;7.788;2023-04-01T00:24:30;0.10;;;0.00;;
11425;SDS011;5769;47.998;7.788;2023-04-01T00:26:57;0.00;;;0.00;;
11425;SDS011;5769;47.998;7.788;2023-04-01T00:29:24;0.00;;;0.00;;
11425;SDS011;5769;47.998;7.788;2023-04-01T00:31:55;0.00;;;0.00;;
11425;SDS011;5769;47.998;7.788;2023-04-01T00:34:22;0.00;;;0.00;;
11425;SDS011;5769;47.998;7.788;2023-04-01T00:36:50;0.00;;;0.00;;
11425;SDS011;5769;47.998;7.788;2023-04-01T00:39:19;0.00;;;0.00;;
11425;SDS011;5769;47.998;7.788;2023-04-01T00:41:46;0.00;;;0.00;;
11425;SDS011;5769;47.998;7.788;2023-04-01T00:44:15;0.08;;;0.00;;
11425;SDS011;5769;47.998;7.788;2023-04-01T00:46:43;0.00;;;0.00;;
11425;SDS011;5769;47.998;7.788;2023-04-01T00:49:11;0.00;;;0.00;;
11425;SDS011;5769;47.998;7.788;2023-04-01T00:51:39;0.00;;;0.00;;
11425;SDS011;5769;47.998;7.788;2023-04-01T00:54:07;0.00;;;0.00;;
11425;SDS011;5769;47.998;7.788;2023-04-01T00:56:35;0.00;;;0.00;;
11425;SDS011;5769;47.998;7.788;2023-04-01T00:59:06;0.10;;;0.00;;
11425;SDS011;5769;47.998;7.788;2023-04-01T01:01:33;0.00;;;0.00;;
11425;SDS011;5769;47.998;7.788;2023-04-01T01:04:01;0.00;;;0.00;;
11425;SDS011;5769;47.998;7.788;2023-04-01T01:06:33;0.00;;;0.00;;
11425;SDS011;5769;47.998;7.788;2023-04-01T01:09:10;0.00;;;0.00;;
11425;SDS011;5769;47.998;7.788;2023-04-01T01:11:41;0.00;;;0.00;;
11425;SDS011;5769;47.998;7.788;2023-04-01T01:14:12;0.40;;;0.08;;
11425;SDS011;5769;47.998;7.788;2023-04-01T01:16:44;0.00;;;0.00;;
11425;SDS011;5769;47.998;7.788;2023-04-01T01:19:17;0.00;;;0.00;;
11425;SDS011;5769;47.998;7.788;2023-04-01T01:22:03;0.20;;;0.10;;
11425;SDS011;5769;47.998;7.788;2023-04-01T01:24:37;0.00;;;0.00;;
11425;SDS011;5769;47.998;7.788;2023-04-01T01:27:10;0.00;;;0.00;;
11425;SDS011;5769;47.998;7.788;2023-04-01T01:29:47;0.10;;;0.00;;
11425;SDS011;5769;47.998;7.788;2023-04-01T01:32:24;0.03;;;0.03;;
11425;SDS011;5769;47.998;7.788;2023-04-01T01:35:02;0.10;;;0.10;;
11425;SDS011;5769;47.998;7.788;2023-04-01T01:37:30;0.00;;;0.00;;
11425;SDS011;5769;47.998;7.788;2023-04-01T01:39:58;0.00;;;0.00;;
11425;SDS011;5769;47.998;7.788;2023-04-01T01:42:26;0.00;;;0.00;;
11425;SDS011;5769;47.998;7.788;2023-04-01T01:44:55;0.10;;;0.00;;
11425;SDS011;5769;47.998;7.788;2023-04-01T01:47:24;0.00;;;0.00;;
11425;SDS011;5769;47.998;7.788;2023-04-01T01:49:52;0.10;;;0.00;;
11425;SDS011;5769;47.998;7.788;2023-04-01T01:52:21;0.00;;;0.00;;
11425;SDS011;5769;47.998;7.788;2023-04-01T01:54:48;0.00;;;0.00;;
11425;SDS011;5769;47.998;7.788;2023-04-01T01:57:16;0.00;;;0.00;;
11425;SDS011;5769;47.998;7.788;2023-04-01T01:59:44;0.00;;;0.00;;
11425;SDS011;5769;47.998;7.788;2023-04-01T02:02:13;0.00;;;0.00;;
11425;SDS011;5769;47.998;7.788;2023-04-01T02:04:42;0.00;;;0.00;;
11425;SDS011;5769;47.998;7.788;2023-04-01T02:07:11;0.00;;;0.00;;
11425;SDS011;5769;47.998;7.788;2023-04-01T02:09:42;0.08;;;0.00;;
11425;SDS011;5769;47.998;7.788;2023-04-01T02:12:09;0.08;;;0.03;;
11425;SDS011;5769;47.998;7.788;2023-04-01T02:14:39;0.00;;;0.00;;
11425;SDS011;5769;47.998;7.788;2023-04-01T02:17:08;0.05;;;0.05;;
11425;SDS011;5769;47.998;7.788;2023-04-01T02:19:36;0.30;;;0.00;;
11425;SDS011;5769;47.998;7.788;2023-04-01T02:22:05;0.00;;;0.00;;
11425;SDS011;5769;47.998;7.788;2023-04-01T02:24:35;0.00;;;0.00;;
11425;SDS011;5769;47.998;7.788;2023-04-01T02:27:04;0.00;;;0.00;;
11425;SDS011;5769;47.998;7.788;2023-04-01T02:29:31;0.00;;;0.00;;
11425;SDS011;5769;47.998;7.788;2023-04-01T02:31:58;0.00;;;0.00;;
11425;SDS011;5769;47.998;7.788;2023-04-01T02:34:25;0.00;;;0.00;;
11425;SDS011;5769;47.998;7.788;2023-04-01T02:36:53;0.00;;;0.00;;
11425;SDS011;5769;47.998;7.788;2023-04-01T02:39:21;0.00;;;0.00;;
11425;SDS011;5769;47.998;7.788;2023-04-01T02:41:50;0.00;;;0.00;;
11425;SDS011;5769;47.998;7.788;2023-04-01T02:44:19;0.00;;;0.00;;
11425;SDS011;5769;47.998;7.788;2023-04-01T02:46:46;0.00;;;0.00;;
11425;SDS011;5769;47.998;7.788;2023-04-01T02:49:13;0.00;;;0.00;;
11425;SDS011;5769;47.998;7.788;2023-04-01T02:51:40;0.08;;;0.00;;
11425;SDS011;5769;47.998;7.788;2023-04-01T02:54:07;0.00;;;0.00;;
11425;SDS011;5769;47.998;7.788;2023-04-01T02:56:34;0.00;;;0.00;;
11425;SDS011;5769;47.998;7.788;2023-04-01T02:59:01;0.05;;;0.00;;
11425;SDS011;5769;47.998;7.788;2023-04-01T03:01:29;0.00;;;0.00;;
11425;SDS011;5769;47.998;7.788;2023-04-01T03:03:56;0.00;;;0.00;;
11425;SDS011;5769;47.998;7.788;2023-04-01T03:06:23;0.00;;;0.00;;
11425;SDS011;5769;47.998;7.788;2023-04-01T03:08:50;0.38;;;0.10;;
11425;SDS011;5769;47.998;7.788;2023-04-01T03:11:17;0.00;;;0.00;;
11425;SDS011;5769;47.998;7.788;2023-04-01T03:13:44;0.00;;;0.00;;
11425;SDS011;5769;47.998;7.788;2023-04-01T03:16:11;0.00;;;0.00;;
11425;SDS011;5769;47.998;7.788;2023-04-01T03:18:40;0.00;;;0.00;;
11425;SDS011;5769;47.998;7.788;2023-04-01T03:21:14;0.03;;;0.03;;
11425;SDS011;5769;47.998;7.788;2023-04-01T03:23:41;0.00;;;0.00;;
11425;SDS011;5769;47.998;7.788;2023-04-01T03:26:08;0.00;;;0.00;;
11425;SDS011;5769;47.998;7.788;2023-04-01T03:28:35;0.10;;;0.00;;
11425;SDS011;5769;47.998;7.788;2023-04-01T03:31:02;0.10;;;0.10;;
11425;SDS011;5769;47.998;7.788;2023-04-01T03:33:29;0.25;;;0.08;;
11425;SDS011;5769;47.998;7.788;2023-04-01T03:35:58;0.15;;;0.00;;
11425;SDS011;5769;47.998;7.788;2023-04-01T03:38:25;0.00;;;0.00;;
11425;SDS011;5769;47.998;7.788;2023-04-01T03:40:52;0.10;;;0.03;;
11425;SDS011;5769;47.998;7.788;2023-04-01T03:43:19;0.00;;;0.00;;
11425;SDS011;5769;47.998;7.788;2023-04-01T03:45:46;0.10;;;0.10;;
11425;SDS011;5769;47.998;7.788;2023-04-01T03:48:13;0.10;;;0.10;;
11425;SDS011;5769;47.998;7.788;2023-04-01T03:50:41;0.00;;;0.00;;
11425;SDS011;5769;47.998;7.788;2023-04-01T03:53:09;0.00;;;0.00;;
11425;SDS011;5769;47.998;7.788;2023-04-01T03:55:36;0.05;;;0.00;;
11425;SDS011;5769;47.998;7.788;2023-04-01T03:58:04;0.00;;;0.00;;
11425;SDS011;5769;47.998;7.788;2023-04-01T04:00:31;0.08;;;0.08;;
11425;SDS011;5769;47.998;7.788;2023-04-01T04:02:58;0.10;;;0.10;;
11425;SDS011;5769;47.998;7.788;2023-04-01T04:05:25;0.00;;;0.00;;
11425;SDS011;5769;47.998;7.788;2023-04-01T04:07:53;0.00;;;0.00;;
11425;SDS011;5769;47.998;7.788;2023-04-01T04:10:22;0.00;;;0.00;;
11425;SDS011;5769;47.998;7.788;2023-04-01T04:12:50;0.03;;;0.03;;
11425;SDS011;5769;47.998;7.788;2023-04-01T04:15:17;0.20;;;0.10;;
11425;SDS011;5769;47.998;7.788;2023-04-01T04:17:44;0.00;;;0.00;;
11425;SDS011;5769;47.998;7.788;2023-04-01T04:20:11;0.00;;;0.00;;
11425;SDS011;5769;47.998;7.788;2023-04-01T04:22:38;0.30;;;0.10;;
11425;SDS011;5769;47.998;7.788;2023-04-01T04:25:06;0.10;;;0.10;;
11425;SDS011;5769;47.998;7.788;2023-04-01T04:27:34;0.08;;;0.08;;
11425;SDS011;5769;47.998;7.788;2023-04-01T04:30:01;0.00;;;0.00;;
11425;SDS011;5769;47.998;7.788;2023-04-01T04:32:29;0.10;;;0.10;;
11425;SDS011;5769;47.998;7.788;2023-04-01T04:34:56;0.17;;;0.17;;
11425;SDS011;5769;47.998;7.788;2023-04-01T04:37:23;0.25;;;0.03;;
11425;SDS011;5769;47.998;7.788;2023-04-01T04:39:51;0.00;;;0.00;;
11425;SDS011;5769;47.998;7.788;2023-04-01T04:42:18;0.00;;;0.00;;
11425;SDS011;5769;47.998;7.788;2023-04-01T04:44:46;0.00;;;0.00;;
11425;SDS011;5769;47.998;7.788;2023-04-01T04:47:13;0.00;;;0.00;;
11425;SDS011;5769;47.998;7.788;2023-04-01T04:49:40;0.10;;;0.10;;
11425;SDS011;5769;47.998;7.788;2023-04-01T04:52:07;0.00;;;0.00;;
11425;SDS011;5769;47.998;7.788;2023-04-01T04:54:34;0.05;;;0.00;;
11425;SDS011;5769;47.998;7.788;2023-04-01T04:57:01;0.00;;;0.00;;
11425;SDS011;5769;47.998;7.788;2023-04-01T04:59:28;0.08;;;0.08;;
11425;SDS011;5769;47.998;7.788;2023-04-01T05:01:57;0.03;;;0.00;;
11425;SDS011;5769;47.998;7.788;2023-04-01T05:04:24;0.03;;;0.03;;
11425;SDS011;5769;47.998;7.788;2023-04-01T05:06:51;0.00;;;0.00;;
11425;SDS011;5769;47.998;7.788;2023-04-01T05:09:18;0.38;;;0.00;;
11425;SDS011;5769;47.998;7.788;2023-04-01T05:11:45;0.00;;;0.00;;
11425;SDS011;5769;47.998;7.788;2023-04-01T05:14:13;0.10;;;0.00;;
11425;SDS011;5769;47.998;7.788;2023-04-01T05:16:40;0.25;;;0.05;;
11425;SDS011;5769;47.998;7.788;2023-04-01T05:19:08;0.00;;;0.00;;
11425;SDS011;5769;47.998;7.788;2023-04-01T05:21:35;0.00;;;0.00;;
11425;SDS011;5769;47.998;7.788;2023-04-01T05:24:03;0.00;;;0.00;;
11425;SDS011;5769;47.998;7.788;2023-04-01T05:26:30;0.00;;;0.00;;
11425;SDS011;5769;47.998;7.788;2023-04-01T05:28:57;0.00;;;0.00;;
11425;SDS011;5769;47.998;7.788;2023-04-01T05:31:24;0.10;;;0.10;;
11425;SDS011;5769;47.998;7.788;2023-04-01T05:33:51;0.00;;;0.00;;
11425;SDS011;5769;47.998;7.788;2023-04-01T05:36:20;0.00;;;0.00;;
11425;SDS011;5769;47.998;7.788;2023-04-01T05:38:47;0.00;;;0.00;;
11425;SDS011;5769;47.998;7.788;2023-04-01T05:41:15;0.00;;;0.00;;
11425;SDS011;5769;47.998;7.788;2023-04-01T05:43:42;0.17;;;0.10;;
11425;SDS011;5769;47.998;7.788;2023-04-01T05:46:09;0.00;;;0.00;;
11425;SDS011;5769;47.998;7.788;2023-04-01T05:48:36;0.10;;;0.10;;
11425;SDS011;5769;47.998;7.788;2023-04-01T05:51:03;0.00;;;0.00;;
11425;SDS011;5769;47.998;7.788;2023-04-01T05:53:32;0.00;;;0.00;;
11425;SDS011;5769;47.998;7.788;2023-04-01T05:56:01;0.08;;;0.08;;
11425;SDS011;5769;47.998;7.788;2023-04-01T05:58:29;0.00;;;0.00;;
11425;SDS011;5769;47.998;7.788;2023-04-01T06:00:59;0.13;;;0.13;;
11425;SDS011;5769;47.998;7.788;2023-04-01T06:03:26;0.10;;;0.10;;
11425;SDS011;5769;47.998;7.788;2023-04-01T06:05:53;0.00;;;0.00;;
11425;SDS011;5769;47.998;7.788;2023-04-01T06:08:20;0.20;;;0.10;;
11425;SDS011;5769;47.998;7.788;2023-04-01T06:10:51;0.03;;;0.03;;
11425;SDS011;5769;47.998;7.788;2023-04-01T06:13:22;0.10;;;0.10;;
11425;SDS011;5769;47.998;7.788;2023-04-01T06:15:53;0.00;;;0.00;;
11425;SDS011;5769;47.998;7.788;2023-04-01T06:21:10;0.10;;;0.10;;
11425;SDS011;5769;47.998;7.788;2023-04-01T06:23:49;0.20;;;0.10;;
11425;SDS011;5769;47.998;7.788;2023-04-01T06:26:26;0.05;;;0.05;;
11425;SDS011;5769;47.998;7.788;2023-04-01T06:28:59;0.00;;;0.00;;
11425;SDS011;5769;47.998;7.788;2023-04-01T06:31:35;0.10;;;0.10;;
11425;SDS011;5769;47.998;7.788;2023-04-01T06:34:17;0.10;;;0.10;;
11425;SDS011;5769;47.998;7.788;2023-04-01T06:36:51;0.00;;;0.00;;
11425;SDS011;5769;47.998;7.788;2023-04-01T06:39:26;0.10;;;0.05;;
11425;SDS011;5769;47.998;7.788;2023-04-01T06:42:03;0.10;;;0.10;;
11425;SDS011;5769;47.998;7.788;2023-04-01T06:44:35;0.15;;;0.15;;
11425;SDS011;5769;47.998;7.788;2023-04-01T06:47:17;0.00;;;0.00;;
11425;SDS011;5769;47.998;7.788;2023-04-01T06:49:48;0.10;;;0.10;;
11425;SDS011;5769;47.998;7.788;2023-04-01T06:52:19;0.10;;;0.10;;
11425;SDS011;5769;47.998;7.788;2023-04-01T06:54:51;0.10;;;0.10;;
11425;SDS011;5769;47.998;7.788;2023-04-01T06:57:22;0.00;;;0.00;;
11425;SDS011;5769;47.998;7.788;2023-04-01T06:59:51;0.08;;;0.08;;
11425;SDS011;5769;47.998;7.788;2023-04-01T07:02:20;0.13;;;0.10;;
11425;SDS011;5769;47.998;7.788;2023-04-01T07:04:50;0.00;;;0.00;;
11425;SDS011;5769;47.998;7.788;2023-04-01T07:07:19;0.05;;;0.05;;
11425;SDS011;5769;47.998;7.788;2023-04-01T07:09:48;0.10;;;0.10;;
11425;SDS011;5769;47.998;7.788;2023-04-01T07:12:18;0.05;;;0.05;;
11425;SDS011;5769;47.998;7.788;2023-04-01T07:14:49;0.08;;;0.05;;
11425;SDS011;5769;47.998;7.788;2023-04-01T07:17:19;0.05;;;0.05;;
11425;SDS011;5769;47.998;7.788;2023-04-01T07:19:48;0.05;;;0.05;;
11425;SDS011;5769;47.998;7.788;2023-04-01T07:22:19;0.10;;;0.10;;
11425;SDS011;5769;47.998;7.788;2023-04-01T07:24:48;0.00;;;0.00;;
11425;SDS011;5769;47.998;7.788;2023-04-01T07:27:15;0.10;;;0.10;;
11425;SDS011;5769;47.998;7.788;2023-04-01T07:29:42;0.43;;;0.10;;
11425;SDS011;5769;47.998;7.788;2023-04-01T07:32:14;0.20;;;0.10;;
11425;SDS011;5769;47.998;7.788;2023-04-01T07:34:46;0.08;;;0.08;;
11425;SDS011;5769;47.998;7.788;2023-04-01T07:37:18;0.10;;;0.05;;
11425;SDS011;5769;47.998;7.788;2023-04-01T07:39:49;0.10;;;0.10;;
11425;SDS011;5769;47.998;7.788;2023-04-01T07:42:21;0.10;;;0.10;;
11425;SDS011;5769;47.998;7.788;2023-04-01T07:44:51;0.10;;;0.10;;
11425;SDS011;5769;47.998;7.788;2023-04-01T07:47:25;0.10;;;0.10;;
11425;SDS011;5769;47.998;7.788;2023-04-01T07:50:01;0.10;;;0.10;;
11425;SDS011;5769;47.998;7.788;2023-04-01T07:52:30;0.10;;;0.10;;
11425;SDS011;5769;47.998;7.788;2023-04-01T07:55:01;0.30;;;0.30;;
11425;SDS011;5769;47.998;7.788;2023-04-01T07:57:30;0.10;;;0.10;;
11425;SDS011;5769;47.998;7.788;2023-04-01T08:00:02;0.00;;;0.00;;
11425;SDS011;5769;47.998;7.788;2023-04-01T08:02:38;0.10;;;0.10;;
11425;SDS011;5769;47.998;7.788;2023-04-01T08:05:11;0.40;;;0.30;;
11425;SDS011;5769;47.998;7.788;2023-04-01T08:07:42;0.00;;;0.00;;
11425;SDS011;5769;47.998;7.788;2023-04-01T08:10:12;0.10;;;0.10;;
11425;SDS011;5769;47.998;7.788;2023-04-01T08:12:43;0.15;;;0.10;;
11425;SDS011;5769;47.998;7.788;2023-04-01T08:15:16;0.13;;;0.13;;
11425;SDS011;5769;47.998;7.788;2023-04-01T08:17:50;0.00;;;0.00;;
11425;SDS011;5769;47.998;7.788;2023-04-01T08:20:23;0.10;;;0.10;;
11425;SDS011;5769;47.998;7.788;2023-04-01T08:22:53;0.15;;;0.15;;
11425;SDS011;5769;47.998;7.788;2023-04-01T08:25:24;0.00;;;0.00;;
11425;SDS011;5769;47.998;7.788;2023-04-01T08:27:53;0.28;;;0.28;;
11425;SDS011;5769;47.998;7.788;2023-04-01T08:30:23;0.10;;;0.10;;
11425;SDS011;5769;47.998;7.788;2023-04-01T08:32:52;0.50;;;0.20;;
11425;SDS011;5769;47.998;7.788;2023-04-01T08:35:24;0.03;;;0.03;;
11425;SDS011;5769;47.998;7.788;2023-04-01T08:37:53;0.10;;;0.10;;
11425;SDS011;5769;47.998;7.788;2023-04-01T08:40:37;0.05;;;0.05;;
11425;SDS011;5769;47.998;7.788;2023-04-01T08:43:07;0.20;;;0.20;;
11425;SDS011;5769;47.998;7.788;2023-04-01T08:45:48;0.10;;;0.10;;
11425;SDS011;5769;47.998;7.788;2023-04-01T08:48:37;0.15;;;0.10;;
11425;SDS011;5769;47.998;7.788;2023-04-01T08:54:04;0.00;;;0.00;;
11425;SDS011;5769;47.998;7.788;2023-04-01T08:56:36;0.10;;;0.10;;
11425;SDS011;5769;47.998;7.788;2023-04-01T08:59:13;0.03;;;0.03;;
11425;SDS011;5769;47.998;7.788;2023-04-01T09:01:58;0.10;;;0.10;;
11425;SDS011;5769;47.998;7.788;2023-04-01T09:04:35;0.00;;;0.00;;
11425;SDS011;5769;47.998;7.788;2023-04-01T09:07:07;0.10;;;0.10;;
11425;SDS011;5769;47.998;7.788;2023-04-01T09:09:43;0.10;;;0.10;;
11425;SDS011;5769;47.998;7.788;2023-04-01T09:12:25;0.15;;;0.15;;
11425;SDS011;5769;47.998;7.788;2023-04-01T09:17:43;0.10;;;0.10;;
11425;SDS011;5769;47.998;7.788;2023-04-01T09:23:14;0.10;;;0.10;;
11425;SDS011;5769;47.998;7.788;2023-04-01T09:25:51;0.20;;;0.20;;
11425;SDS011;5769;47.998;7.788;2023-04-01T09:28:21;0.10;;;0.10;;
11425;SDS011;5769;47.998;7.788;2023-04-01T09:34:00;0.10;;;0.10;;
11425;SDS011;5769;47.998;7.788;2023-04-01T09:36:37;0.17;;;0.17;;
11425;SDS011;5769;47.998;7.788;2023-04-01T09:39:13;0.00;;;0.00;;
11425;SDS011;5769;47.998;7.788;2023-04-01T09:41:47;0.10;;;0.10;;
11425;SDS011;5769;47.998;7.788;2023-04-01T09:44:21;0.03;;;0.00;;
11425;SDS011;5769;47.998;7.788;2023-04-01T09:46:54;0.10;;;0.10;;
11425;SDS011;5769;47.998;7.788;2023-04-01T09:52:18;0.10;;;0.10;;
11425;SDS011;5769;47.998;7.788;2023-04-01T09:54:56;0.10;;;0.10;;
11425;SDS011;5769;47.998;7.788;2023-04-01T09:57:32;0.10;;;0.10;;
11425;SDS011;5769;47.998;7.788;2023-04-01T10:00:10;0.25;;;0.00;;
11425;SDS011;5769;47.998;7.788;2023-04-01T10:08:40;0.10;;;0.10;;
11425;SDS011;5769;47.998;7.788;2023-04-01T10:11:30;0.10;;;0.10;;
11425;SDS011;5769;47.998;7.788;2023-04-01T10:14:11;0.00;;;0.00;;
11425;SDS011;5769;47.998;7.788;2023-04-01T10:17:00;0.10;;;0.10;;
11425;SDS011;5769;47.998;7.788;2023-04-01T10:19:42;0.10;;;0.10;;
11425;SDS011;5769;47.998;7.788;2023-04-01T10:25:18;0.30;;;0.30;;
11425;SDS011;5769;47.998;7.788;2023-04-01T10:28:01;0.10;;;0.10;;
11425;SDS011;5769;47.998;7.788;2023-04-01T10:30:48;0.15;;;0.15;;
11425;SDS011;5769;47.998;7.788;2023-04-01T10:33:32;0.05;;;0.05;;
11425;SDS011;5769;47.998;7.788;2023-04-01T10:36:21;0.10;;;0.08;;
11425;SDS011;5769;47.998;7.788;2023-04-01T10:38:59;0.00;;;0.00;;
11425;SDS011;5769;47.998;7.788;2023-04-01T10:44:30;0.10;;;0.10;;
11425;SDS011;5769;47.998;7.788;2023-04-01T10:47:09;0.13;;;0.08;;
11425;SDS011;5769;47.998;7.788;2023-04-01T10:52:33;0.17;;;0.00;;
11425;SDS011;5769;47.998;7.788;2023-04-01T10:55:10;0.20;;;0.17;;
11425;SDS011;5769;47.998;7.788;2023-04-01T11:00:31;0.10;;;0.10;;
11425;SDS011;5769;47.998;7.788;2023-04-01T11:03:16;0.10;;;0.10;;
11425;SDS011;5769;47.998;7.788;2023-04-01T11:05:56;0.00;;;0.00;;
11425;SDS011;5769;47.998;7.788;2023-04-01T11:08:31;0.10;;;0.10;;
11425;SDS011;5769;47.998;7.788;2023-04-01T11:16:40;0.05;;;0.05;;
11425;SDS011;5769;47.998;7.788;2023-04-01T11:19:27;0.10;;;0.10;;
11425;SDS011;5769;47.998;7.788;2023-04-01T11:22:23;0.10;;;0.10;;
11425;SDS011;5769;47.998;7.788;2023-04-01T11:25:02;0.17;;;0.17;;
11425;SDS011;5769;47.998;7.788;2023-04-01T11:27:41;0.08;;;0.08;;
11425;SDS011;5769;47.998;7.788;2023-04-01T11:30:20;0.17;;;0.10;;
11425;SDS011;5769;47.998;7.788;2023-04-01T11:32:52;0.00;;;0.00;;
11425;SDS011;5769;47.998;7.788;2023-04-01T11:35:32;0.00;;;0.00;;
11425;SDS011;5769;47.998;7.788;2023-04-01T11:38:07;0.20;;;0.15;;
11425;SDS011;5769;47.998;7.788;2023-04-01T11:40:37;0.20;;;0.20;;
11425;SDS011;5769;47.998;7.788;2023-04-01T11:43:07;0.00;;;0.00;;
11425;SDS011;5769;47.998;7.788;2023-04-01T11:45:35;0.10;;;0.10;;
11425;SDS011;5769;47.998;7.788;2023-04-01T11:48:15;0.10;;;0.10;;
11425;SDS011;5769;47.998;7.788;2023-04-01T11:50:52;0.20;;;0.20;;
11425;SDS011;5769;47.998;7.788;2023-04-01T11:53:23;0.13;;;0.10;;
11425;SDS011;5769;47.998;7.788;2023-04-01T11:55:56;0.10;;;0.10;;
11425;SDS011;5769;47.998;7.788;2023-04-01T11:58:30;0.13;;;0.13;;
11425;SDS011;5769;47.998;7.788;2023-04-01T12:01:01;0.20;;;0.15;;
11425;SDS011;5769;47.998;7.788;2023-04-01T12:03:36;0.20;;;0.20;;
11425;SDS011;5769;47.998;7.788;2023-04-01T12:06:05;0.10;;;0.10;;
11425;SDS011;5769;47.998;7.788;2023-04-01T12:08:38;0.10;;;0.10;;
11425;SDS011;5769;47.998;7.788;2023-04-01T12:11:09;0.15;;;0.10;;
11425;SDS011;5769;47.998;7.788;2023-04-01T12:13:42;0.20;;;0.20;;
11425;SDS011;5769;47.998;7.788;2023-04-01T12:16:16;0.10;;;0.10;;
11425;SDS011;5769;47.998;7.788;2023-04-01T12:18:50;0.10;;;0.10;;
11425;SDS011;5769;47.998;7.788;2023-04-01T12:21:22;0.10;;;0.10;;
11425;SDS011;5769;47.998;7.788;2023-04-01T12:24:14;0.00;;;0.00;;
11425;SDS011;5769;47.998;7.788;2023-04-01T12:26:54;0.10;;;0.05;;
11425;SDS011;5769;47.998;7.788;2023-04-01T12:32:09;0.10;;;0.10;;
11425;SDS011;5769;47.998;7.788;2023-04-01T12:34:57;0.10;;;0.10;;
11425;SDS011;5769;47.998;7.788;2023-04-01T12:37:29;0.10;;;0.10;;
11425;SDS011;5769;47.998;7.788;2023-04-01T12:40:02;0.10;;;0.10;;
11425;SDS011;5769;47.998;7.788;2023-04-01T12:42:39;0.00;;;0.00;;
11425;SDS011;5769;47.998;7.788;2023-04-01T12:45:27;0.30;;;0.30;;
11425;SDS011;5769;47.998;7.788;2023-04-01T12:51:03;0.28;;;0.28;;
11425;SDS011;5769;47.998;7.788;2023-04-01T12:53:38;0.20;;;0.20;;
11425;SDS011;5769;47.998;7.788;2023-04-01T12:56:09;0.10;;;0.10;;
11425;SDS011;5769;47.998;7.788;2023-04-01T12:58:44;0.00;;;0.00;;
11425;SDS011;5769;47.998;7.788;2023-04-01T13:04:15;0.00;;;0.00;;
11425;SDS011;5769;47.998;7.788;2023-04-01T13:06:49;0.10;;;0.10;;
11425;SDS011;5769;47.998;7.788;2023-04-01T13:09:23;0.10;;;0.10;;
11425;SDS011;5769;47.998;7.788;2023-04-01T13:11:54;0.13;;;0.13;;
11425;SDS011;5769;47.998;7.788;2023-04-01T13:14:33;0.10;;;0.10;;
11425;SDS011;5769;47.998;7.788;2023-04-01T13:17:04;0.03;;;0.03;;
11425;SDS011;5769;47.998;7.788;2023-04-01T13:19:35;0.10;;;0.05;;
11425;SDS011;5769;47.998;7.788;2023-04-01T13:22:09;0.32;;;0.10;;
11425;SDS011;5769;47.998;7.788;2023-04-01T13:24:40;0.00;;;0.00;;
11425;SDS011;5769;47.998;7.788;2023-04-01T13:27:09;0.03;;;0.00;;
11425;SDS011;5769;47.998;7.788;2023-04-01T13:29:40;0.10;;;0.10;;
11425;SDS011;5769;47.998;7.788;2023-04-01T13:32:14;0.08;;;0.00;;
11425;SDS011;5769;47.998;7.788;2023-04-01T13:34:50;0.03;;;0.03;;
11425;SDS011;5769;47.998;7.788;2023-04-01T13:37:24;0.10;;;0.10;;
11425;SDS011;5769;47.998;7.788;2023-04-01T13:39:57;0.00;;;0.00;;
11425;SDS011;5769;47.998;7.788;2023-04-01T13:42:28;0.10;;;0.10;;
11425;SDS011;5769;47.998;7.788;2023-04-01T13:44:57;0.10;;;0.10;;
11425;SDS011;5769;47.998;7.788;2023-04-01T13:47:34;0.00;;;0.00;;
11425;SDS011;5769;47.998;7.788;2023-04-01T13:53:03;0.10;;;0.10;;
11425;SDS011;5769;47.998;7.788;2023-04-01T13:55:44;0.35;;;0.10;;
11425;SDS011;5769;47.998;7.788;2023-04-01T13:58:19;0.00;;;0.00;;
11425;SDS011;5769;47.998;7.788;2023-04-01T14:00:53;0.10;;;0.03;;
11425;SDS011;5769;47.998;7.788;2023-04-01T14:03:27;0.10;;;0.10;;
11425;SDS011;5769;47.998;7.788;2023-04-01T14:06:12;0.20;;;0.20;;
11425;SDS011;5769;47.998;7.788;2023-04-01T14:08:46;0.10;;;0.10;;
11425;SDS011;5769;47.998;7.788;2023-04-01T14:11:16;0.00;;;0.00;;
11425;SDS011;5769;47.998;7.788;2023-04-01T14:13:46;0.30;;;0.25;;
11425;SDS011;5769;47.998;7.788;2023-04-01T14:16:23;0.00;;;0.00;;
11425;SDS011;5769;47.998;7.788;2023-04-01T14:19:00;0.10;;;0.10;;
11425;SDS011;5769;47.998;7.788;2023-04-01T14:21:35;0.10;;;0.10;;
11425;SDS011;5769;47.998;7.788;2023-04-01T14:24:20;0.05;;;0.05;;
11425;SDS011;5769;47.998;7.788;2023-04-01T14:26:55;0.10;;;0.10;;
11425;SDS011;5769;47.998;7.788;2023-04-01T14:29:27;0.08;;;0.08;;
11425;SDS011;5769;47.998;7.788;2023-04-01T14:31:59;0.20;;;0.20;;
11425;SDS011;5769;47.998;7.788;2023-04-01T14:34:33;0.10;;;0.10;;
11425;SDS011;5769;47.998;7.788;2023-04-01T14:37:12;0.10;;;0.10;;
11425;SDS011;5769;47.998;7.788;2023-04-01T14:40:00;0.10;;;0.10;;
11425;SDS011;5769;47.998;7.788;2023-04-01T14:42:37;0.00;;;0.00;;
11425;SDS011;5769;47.998;7.788;2023-04-01T14:45:12;0.38;;;0.38;;
11425;SDS011;5769;47.998;7.788;2023-04-01T14:47:46;0.10;;;0.10;;
11425;SDS011;5769;47.998;7.788;2023-04-01T14:50:14;0.35;;;0.20;;
11425;SDS011;5769;47.998;7.788;2023-04-01T14:52:43;0.10;;;0.10;;
11425;SDS011;5769;47.998;7.788;2023-04-01T14:55:27;0.75;;;0.75;;
11425;SDS011;5769;47.998;7.788;2023-04-01T14:57:58;0.30;;;0.30;;
11425;SDS011;5769;47.998;7.788;2023-04-01T15:00:26;0.22;;;0.22;;
11425;SDS011;5769;47.998;7.788;2023-04-01T15:02:55;0.28;;;0.28;;
11425;SDS011;5769;47.998;7.788;2023-04-01T15:05:39;0.30;;;0.30;;
11425;SDS011;5769;47.998;7.788;2023-04-01T15:08:10;0.30;;;0.30;;
11425;SDS011;5769;47.998;7.788;2023-04-01T15:10:46;0.30;;;0.30;;
11425;SDS011;5769;47.998;7.788;2023-04-01T15:13:18;0.40;;;0.40;;
11425;SDS011;5769;47.998;7.788;2023-04-01T15:15:56;0.38;;;0.38;;
11425;SDS011;5769;47.998;7.788;2023-04-01T15:18:25;0.38;;;0.38;;
11425;SDS011;5769;47.998;7.788;2023-04-01T15:23:47;0.35;;;0.35;;
11425;SDS011;5769;47.998;7.788;2023-04-01T15:26:20;0.35;;;0.35;;
11425;SDS011;5769;47.998;7.788;2023-04-01T15:28:55;0.45;;;0.45;;
11425;SDS011;5769;47.998;7.788;2023-04-01T15:31:25;0.40;;;0.40;;
11425;SDS011;5769;47.998;7.788;2023-04-01T15:34:07;0.30;;;0.30;;
11425;SDS011;5769;47.998;7.788;2023-04-01T15:36:37;0.40;;;0.40;;
11425;SDS011;5769;47.998;7.788;2023-04-01T15:39:12;0.40;;;0.40;;
11425;SDS011;5769;47.998;7.788;2023-04-01T15:41:45;0.60;;;0.60;;
11425;SDS011;5769;47.998;7.788;2023-04-01T15:44:34;0.52;;;0.52;;
11425;SDS011;5769;47.998;7.788;2023-04-01T15:47:05;0.63;;;0.63;;
11425;SDS011;5769;47.998;7.788;2023-04-01T15:49:35;0.60;;;0.60;;
11425;SDS011;5769;47.998;7.788;2023-04-01T15:52:06;0.57;;;0.57;;
11425;SDS011;5769;47.998;7.788;2023-04-01T15:54:52;0.70;;;0.70;;
11425;SDS011;5769;47.998;7.788;2023-04-01T15:57:27;0.80;;;0.80;;
11425;SDS011;5769;47.998;7.788;2023-04-01T16:02:39;0.82;;;0.82;;
11425;SDS011;5769;47.998;7.788;2023-04-01T16:05:13;1.00;;;1.00;;
11425;SDS011;5769;47.998;7.788;2023-04-01T16:07:55;0.98;;;0.98;;
11425;SDS011;5769;47.998;7.788;2023-04-01T16:10:25;0.75;;;0.75;;
11425;SDS011;5769;47.998;7.788;2023-04-01T16:13:02;0.80;;;0.80;;
11425;SDS011;5769;47.998;7.788;2023-04-01T16:15:34;0.77;;;0.77;;
11425;SDS011;5769;47.998;7.788;2023-04-01T16:18:09;0.88;;;0.88;;
11425;SDS011;5769;47.998;7.788;2023-04-01T16:20:43;0.93;;;0.93;;
11425;SDS011;5769;47.998;7.788;2023-04-01T16:23:12;1.42;;;1.42;;
11425;SDS011;5769;47.998;7.788;2023-04-01T16:25:41;1.23;;;1.23;;
11425;SDS011;5769;47.998;7.788;2023-04-01T16:28:15;0.98;;;0.98;;